createdAt,value
2019-03-08T00:01:11.711Z,95216.36
2019-03-08T00:03:41.180Z,95210.69
2019-03-08T00:06:10.734Z,95206.34
2019-03-08T00:08:40.264Z,95213.75
2019-03-08T00:11:09.885Z,95215.73
2019-03-08T00:13:39.342Z,95204.25
2019-03-08T00:16:08.827Z,95211.39
2019-03-08T00:18:38.312Z,95202.97
2019-03-08T00:21:07.810Z,95212.22
2019-03-08T00:23:37.597Z,95214.48
2019-03-08T00:26:07.100Z,95214.66
2019-03-08T00:28:36.561Z,95208.00
2019-03-08T00:31:06.042Z,95218.23
2019-03-08T00:33:35.528Z,95224.44
2019-03-08T00:36:05.015Z,95216.07
2019-03-08T00:38:34.548Z,95219.75
2019-03-08T00:41:04.068Z,95220.81
2019-03-08T00:43:33.560Z,95219.53
2019-03-08T00:46:03.122Z,95218.81
2019-03-08T00:48:32.586Z,95222.66
2019-03-08T00:51:02.334Z,95228.42
2019-03-08T00:53:31.847Z,95224.50
2019-03-08T00:56:01.359Z,95223.52
2019-03-08T00:58:30.913Z,95210.64
2019-03-08T01:01:00.425Z,95213.72
2019-03-08T01:03:29.892Z,95214.69
2019-03-08T01:05:59.331Z,95212.41
2019-03-08T01:08:28.899Z,95208.58
2019-03-08T01:10:58.784Z,95205.07
2019-03-08T01:13:28.334Z,95203.23
2019-03-08T01:15:57.952Z,95204.02
2019-03-08T01:18:27.782Z,95204.91
2019-03-08T01:20:57.281Z,95203.11
2019-03-08T01:23:26.846Z,95209.63
2019-03-08T01:25:56.346Z,95209.28
2019-03-08T01:28:25.845Z,95213.11
2019-03-08T01:30:55.358Z,95211.48
2019-03-08T01:33:24.823Z,95207.88
2019-03-08T01:35:54.327Z,95201.84
2019-03-08T01:38:23.837Z,95195.88
2019-03-08T01:40:53.413Z,95199.02
2019-03-08T01:43:22.889Z,95201.22
2019-03-08T01:45:52.644Z,95199.35
2019-03-08T01:48:22.094Z,95202.11
2019-03-08T01:50:51.577Z,95199.03
2019-03-08T01:53:21.055Z,95200.67
2019-03-08T01:55:50.635Z,95199.02
2019-03-08T01:58:20.155Z,95201.08
2019-03-08T02:00:49.638Z,95199.41
2019-03-08T02:03:19.195Z,95203.83
2019-03-08T02:05:48.695Z,95208.33
2019-03-08T02:08:18.242Z,95207.02
2019-03-08T02:10:47.755Z,95204.76
2019-03-08T02:13:17.523Z,95207.70
2019-03-08T02:15:47.067Z,95201.86
2019-03-08T02:18:16.590Z,95208.89
2019-03-08T02:20:46.141Z,95209.06
2019-03-08T02:23:15.626Z,95208.75
2019-03-08T02:25:45.736Z,95211.86
2019-03-08T02:28:15.340Z,95213.34
2019-03-08T02:30:44.831Z,95208.28
2019-03-08T02:33:14.363Z,95211.72
2019-03-08T02:35:43.899Z,95209.88
2019-03-08T02:38:13.402Z,95212.92
2019-03-08T02:40:43.197Z,95211.91
2019-03-08T02:43:18.664Z,95210.31
2019-03-08T02:45:48.159Z,95211.68
2019-03-08T02:48:17.671Z,95210.90
2019-03-08T02:50:47.186Z,95215.46
2019-03-08T02:53:17.016Z,95223.55
2019-03-08T02:55:46.521Z,95226.69
2019-03-08T02:58:16.001Z,95231.34
2019-03-08T03:00:46.906Z,95227.27
2019-03-08T03:03:17.171Z,95225.98
2019-03-08T03:05:46.810Z,95223.66
2019-03-08T03:08:16.257Z,95230.95
2019-03-08T03:10:49.343Z,95229.13
2019-03-08T03:13:18.818Z,95233.62
2019-03-08T03:15:48.317Z,95228.23
2019-03-08T03:18:17.842Z,95227.91
2019-03-08T03:20:47.377Z,95227.44
2019-03-08T03:23:16.855Z,95233.62
2019-03-08T03:25:46.410Z,95233.45
2019-03-08T03:28:15.898Z,95242.31
2019-03-08T03:30:45.397Z,95235.34
2019-03-08T03:33:15.106Z,95236.09
2019-03-08T03:35:44.586Z,95243.04
2019-03-08T03:38:14.126Z,95247.05
2019-03-08T03:40:43.632Z,95240.28
2019-03-08T03:43:13.138Z,95252.69
2019-03-08T03:45:42.626Z,95252.05
2019-03-08T03:48:12.176Z,95247.36
2019-03-08T03:50:41.776Z,95244.50
2019-03-08T03:53:11.263Z,95246.50
2019-03-08T03:55:40.745Z,95249.09
2019-03-08T03:58:10.355Z,95256.52
2019-03-08T04:00:40.123Z,95256.88
2019-03-08T04:03:09.663Z,95260.80
2019-03-08T04:05:39.205Z,95268.52
2019-03-08T04:08:08.724Z,95260.52
2019-03-08T04:10:38.268Z,95260.03
2019-03-08T04:13:07.807Z,95264.42
2019-03-08T04:15:37.350Z,95263.97
2019-03-08T04:18:06.934Z,95269.58
2019-03-08T04:20:36.477Z,95267.84
2019-03-08T04:23:06.012Z,95268.13
2019-03-08T04:25:35.591Z,95261.31
2019-03-08T04:28:05.388Z,95264.41
2019-03-08T04:30:34.878Z,95264.66
2019-03-08T04:33:04.368Z,95264.78
2019-03-08T04:35:33.846Z,95260.35
2019-03-08T04:38:03.399Z,95262.22
2019-03-08T04:40:32.872Z,95253.56
2019-03-08T04:43:02.343Z,95255.36
2019-03-08T04:45:31.839Z,95251.95
2019-03-08T04:48:01.342Z,95250.22
2019-03-08T04:50:30.862Z,95246.80
2019-03-08T04:53:00.343Z,95247.05
2019-03-08T04:55:30.122Z,95242.64
2019-03-08T04:57:59.649Z,95246.73
2019-03-08T05:00:29.259Z,95242.52
2019-03-08T05:02:58.744Z,95245.00
2019-03-08T05:05:28.309Z,95244.61
2019-03-08T05:07:57.807Z,95240.50
2019-03-08T05:10:27.308Z,95242.64
2019-03-08T05:12:56.835Z,95242.12
2019-03-08T05:15:26.338Z,95244.37
2019-03-08T05:17:55.806Z,95239.79
2019-03-08T05:20:25.333Z,95236.19
2019-03-08T05:22:54.807Z,95237.58
2019-03-08T05:25:24.302Z,95238.63
2019-03-08T05:27:53.809Z,95240.09
2019-03-08T05:30:23.664Z,95244.58
2019-03-08T05:32:53.137Z,95243.56
2019-03-08T05:35:22.598Z,95239.89
2019-03-08T05:37:52.385Z,95251.35
2019-03-08T05:40:22.308Z,95258.97
2019-03-08T05:42:51.815Z,95248.48
2019-03-08T05:45:21.654Z,95250.72
2019-03-08T05:47:51.187Z,95258.80
2019-03-08T05:50:20.680Z,95265.16
2019-03-08T05:52:50.185Z,95253.40
2019-03-08T05:55:19.672Z,95259.84
2019-03-08T05:57:49.531Z,95254.47
2019-03-08T06:00:20.529Z,95260.20
2019-03-08T06:02:50.037Z,95257.83
2019-03-08T06:05:19.802Z,95263.17
2019-03-08T06:07:49.318Z,95264.87
2019-03-08T06:10:32.785Z,95267.63
2019-03-08T06:13:02.328Z,95269.42
2019-03-08T06:15:31.957Z,95263.89
2019-03-08T06:18:01.439Z,95260.96
2019-03-08T06:20:31.146Z,95260.78
2019-03-08T06:23:00.658Z,95264.46
2019-03-08T06:25:30.259Z,95270.20
2019-03-08T06:27:59.759Z,95272.77
2019-03-08T06:30:29.290Z,95276.13
2019-03-08T06:32:59.063Z,95271.25
2019-03-08T06:35:28.646Z,95274.14
2019-03-08T06:37:58.165Z,95266.28
2019-03-08T06:40:27.686Z,95264.03
2019-03-08T06:42:57.227Z,95266.20
2019-03-08T06:45:26.722Z,95275.25
2019-03-08T06:47:56.255Z,95274.20
2019-03-08T06:50:25.766Z,95269.50
2019-03-08T06:52:55.311Z,95265.89
2019-03-08T06:55:24.982Z,95273.26
2019-03-08T06:58:04.567Z,95272.89
2019-03-08T07:00:59.385Z,95269.81
2019-03-08T07:03:28.877Z,95283.73
2019-03-08T07:05:58.394Z,95274.61
2019-03-08T07:08:27.903Z,95263.33
2019-03-08T07:10:57.414Z,95266.89
2019-03-08T07:13:28.143Z,95271.80
2019-03-08T07:15:57.881Z,95271.84
2019-03-08T07:18:27.368Z,95272.09
2019-03-08T07:21:20.879Z,95276.81
2019-03-08T07:24:05.065Z,95277.55
2019-03-08T07:27:11.972Z,95273.39
2019-03-08T07:30:03.179Z,95273.56
2019-03-08T07:32:44.064Z,95278.09
2019-03-08T07:35:28.186Z,95274.22
2019-03-08T07:38:31.815Z,95264.84
2019-03-08T07:41:16.598Z,95264.54
2019-03-08T07:44:05.006Z,95253.95
2019-03-08T07:46:49.878Z,95257.09
2019-03-08T07:49:50.677Z,95253.69
2019-03-08T07:52:41.625Z,95259.38
2019-03-08T07:55:34.686Z,95259.48
2019-03-08T07:58:17.192Z,95256.34
2019-03-08T08:01:05.655Z,95256.25
2019-03-08T08:03:42.136Z,95245.81
2019-03-08T08:06:19.722Z,95243.70
2019-03-08T08:09:23.446Z,95240.56
2019-03-08T08:12:14.643Z,95240.45
2019-03-08T08:15:02.097Z,95230.63
2019-03-08T08:17:56.320Z,95232.56
2019-03-08T08:20:52.789Z,95225.19
2019-03-08T08:23:47.124Z,95231.77
2019-03-08T08:26:26.297Z,95231.66
2019-03-08T08:29:24.011Z,95234.38
2019-03-08T08:32:15.238Z,95238.73
2019-03-08T08:35:02.323Z,95236.13
2019-03-08T08:37:53.922Z,95241.05
2019-03-08T08:40:56.859Z,95243.19
2019-03-08T08:43:48.070Z,95238.14
2019-03-08T08:46:42.532Z,95240.34
2019-03-08T08:49:37.336Z,95231.28
2019-03-08T08:52:24.651Z,95232.88
2019-03-08T08:55:13.136Z,95235.66
2019-03-08T08:58:10.373Z,95229.06
2019-03-08T09:00:55.534Z,95227.37
2019-03-08T09:04:02.391Z,95229.19
2019-03-08T09:06:52.870Z,95222.34
2019-03-08T09:09:47.147Z,95219.12
2019-03-08T09:12:35.571Z,95221.13
2019-03-08T09:15:24.622Z,95218.88
2019-03-08T09:18:16.005Z,95218.31
2019-03-08T09:21:00.177Z,95228.80
2019-03-08T09:23:50.689Z,95221.63
2019-03-08T09:26:34.624Z,95221.94
2019-03-08T09:29:28.736Z,95221.25
2019-03-08T09:32:29.385Z,95218.64
2019-03-08T09:35:13.415Z,95205.91
2019-03-08T09:38:10.978Z,95206.81
2019-03-08T09:41:08.545Z,95207.78
2019-03-08T09:43:44.547Z,95208.52
2019-03-08T09:46:22.904Z,95203.35
2019-03-08T09:49:09.051Z,95207.19
2019-03-08T09:51:44.021Z,95201.38
2019-03-08T09:54:22.319Z,95201.44
2019-03-08T09:57:12.579Z,95202.96
2019-03-08T09:59:59.725Z,95204.88
2019-03-08T10:02:54.244Z,95198.55
2019-03-08T10:05:41.447Z,95192.73
2019-03-08T10:08:32.691Z,95188.82
2019-03-08T10:11:19.845Z,95185.86
2019-03-08T10:14:08.230Z,95187.81
2019-03-08T10:16:46.255Z,95183.34
2019-03-08T10:19:29.908Z,95179.30
2019-03-08T10:22:21.201Z,95176.72
2019-03-08T10:25:27.889Z,95171.89
2019-03-08T10:28:15.318Z,95169.16
2019-03-08T10:30:59.455Z,95170.16
2019-03-08T10:33:50.985Z,95167.51
2019-03-08T10:36:37.978Z,95170.16
2019-03-08T10:39:30.838Z,95159.70
2019-03-08T10:42:10.411Z,95162.98
2019-03-08T10:44:52.495Z,95158.29
2019-03-08T10:47:38.703Z,95155.44
2019-03-08T10:50:18.948Z,95151.23
2019-03-08T10:53:04.096Z,95149.36
2019-03-08T10:55:54.343Z,95145.55
2019-03-08T10:58:49.121Z,95146.89
2019-03-08T11:01:42.868Z,95137.95
2019-03-08T11:04:31.280Z,95133.91
2019-03-08T11:07:14.429Z,95137.89
2019-03-08T11:10:03.835Z,95125.41
2019-03-08T11:12:52.263Z,95117.78
2019-03-08T11:15:41.147Z,95108.65
2019-03-08T11:18:28.389Z,95101.79
2019-03-08T11:21:17.054Z,95097.16
2019-03-08T11:23:57.556Z,95087.42
2019-03-08T11:27:04.812Z,95087.34
2019-03-08T11:29:39.275Z,95086.69
2019-03-08T11:32:23.076Z,95080.75
2019-03-08T11:35:00.199Z,95074.59
2019-03-08T11:38:03.731Z,95071.58
2019-03-08T11:41:04.320Z,95066.20
2019-03-08T11:44:11.535Z,95067.27
2019-03-08T11:47:03.049Z,95062.11
2019-03-08T11:49:42.547Z,95053.83
2019-03-08T11:52:46.142Z,95048.39
2019-03-08T11:55:22.355Z,95042.05
2019-03-08T11:58:13.569Z,95046.52
2019-03-08T12:01:08.885Z,95036.47
2019-03-08T12:03:56.220Z,95028.60
2019-03-08T12:06:44.960Z,95023.87
2019-03-08T12:09:42.514Z,95008.48
2019-03-08T12:12:30.951Z,95011.53
2019-03-08T12:15:19.369Z,95016.61
2019-03-08T12:18:07.959Z,95010.30
2019-03-08T12:20:46.930Z,95010.69
2019-03-08T12:23:32.381Z,95011.30
2019-03-08T12:26:27.004Z,95010.77
2019-03-08T12:29:15.465Z,95007.85
2019-03-08T12:32:16.263Z,95001.73
2019-03-08T12:34:52.363Z,94996.92
2019-03-08T12:37:27.673Z,94988.38
2019-03-08T12:40:10.224Z,94998.25
2019-03-08T12:42:56.774Z,94991.03
2019-03-08T12:45:51.293Z,94986.53
2019-03-08T12:48:38.642Z,94987.06
2019-03-08T12:51:42.432Z,94982.27
2019-03-08T12:54:37.066Z,94979.31
2019-03-08T12:57:23.944Z,94982.80
2019-03-08T13:00:02.549Z,94983.06
2019-03-08T13:02:51.290Z,94982.78
2019-03-08T13:05:45.497Z,94982.03
2019-03-08T13:08:24.718Z,94982.58
2019-03-08T13:10:54.231Z,94970.03
2019-03-08T13:13:23.766Z,94962.83
2019-03-08T13:15:53.263Z,94966.83
2019-03-08T13:18:22.752Z,94956.94
2019-03-08T13:20:52.250Z,94955.05
2019-03-08T13:23:21.799Z,94955.05
2019-03-08T13:25:51.278Z,94951.58
2019-03-08T13:28:20.766Z,94947.81
2019-03-08T13:30:50.271Z,94950.75
2019-03-08T13:33:19.935Z,94953.42
2019-03-08T13:35:49.910Z,94953.45
2019-03-08T13:38:19.432Z,94950.27
2019-03-08T13:40:48.985Z,94946.50
2019-03-08T13:43:18.518Z,94936.89
2019-03-08T13:45:48.086Z,94945.19
2019-03-08T13:48:17.577Z,94946.79
2019-03-08T13:50:47.041Z,94935.84
2019-03-08T13:53:16.548Z,94932.92
2019-03-08T13:55:46.056Z,94929.12
2019-03-08T13:58:15.561Z,94932.11
2019-03-08T14:00:45.230Z,94925.17
2019-03-08T14:03:14.726Z,94915.28
2019-03-08T14:05:44.247Z,94922.23
2019-03-08T14:08:13.778Z,94932.63
2019-03-08T14:10:43.354Z,94934.20
2019-03-08T14:13:12.927Z,94938.73
2019-03-08T14:15:43.472Z,94937.41
2019-03-08T14:18:12.954Z,94938.73
2019-03-08T14:20:42.758Z,94932.59
2019-03-08T14:23:12.250Z,94931.32
2019-03-08T14:25:41.827Z,94923.80
2019-03-08T14:28:12.013Z,94931.26
2019-03-08T14:30:47.792Z,94926.97
2019-03-08T14:33:17.295Z,94930.17
2019-03-08T14:35:46.765Z,94932.30
2019-03-08T14:38:16.242Z,94935.48
2019-03-08T14:41:04.786Z,94924.81
2019-03-08T14:43:57.764Z,94931.20
2019-03-08T14:46:41.377Z,94926.38
2019-03-08T14:49:10.905Z,94927.68
2019-03-08T14:51:40.464Z,94927.68
2019-03-08T14:54:10.853Z,94933.29
2019-03-08T14:56:40.620Z,94934.09
2019-03-08T14:59:11.253Z,94933.83
2019-03-08T15:01:41.479Z,94934.89
2019-03-08T15:04:11.000Z,94932.75
2019-03-08T15:06:40.529Z,94936.16
2019-03-08T15:09:13.051Z,94939.59
2019-03-08T15:11:42.580Z,94944.65
2019-03-08T15:14:12.140Z,94939.03
2019-03-08T15:16:41.667Z,94943.03
2019-03-08T15:19:11.236Z,94937.38
2019-03-08T15:21:48.421Z,94937.65
2019-03-08T15:24:12.188Z,94934.94
2019-03-08T15:26:41.699Z,94942.66
2019-03-08T15:29:11.221Z,94943.16
2019-03-08T15:31:40.715Z,94949.48
2019-03-08T15:34:14.581Z,94949.42
2019-03-08T15:36:44.169Z,94953.30
2019-03-08T15:39:13.681Z,94959.62
2019-03-08T15:41:43.192Z,94962.80
2019-03-08T15:44:12.685Z,94967.28
2019-03-08T15:46:42.645Z,94974.74
2019-03-08T15:49:12.156Z,94973.66
2019-03-08T15:51:41.710Z,94986.14
2019-03-08T15:54:11.303Z,94981.25
2019-03-08T15:56:40.826Z,94995.83
2019-03-08T15:59:10.547Z,94993.38
2019-03-08T16:01:40.052Z,94987.72
2019-03-08T16:04:12.177Z,94991.11
2019-03-08T16:06:43.991Z,94985.48
2019-03-08T16:09:12.194Z,94987.79
2019-03-08T16:11:41.736Z,94994.55
2019-03-08T16:14:13.031Z,94995.02
2019-03-08T16:16:43.992Z,94999.49
2019-03-08T16:19:13.602Z,95009.25
2019-03-08T16:21:46.777Z,95005.70
2019-03-08T16:24:14.568Z,95010.89
2019-03-08T16:26:44.113Z,95001.73
2019-03-08T16:29:13.522Z,95001.13
2019-03-08T16:31:55.205Z,95002.12
2019-03-08T16:34:24.507Z,95005.50
2019-03-08T16:36:59.127Z,95002.74
2019-03-08T16:39:35.386Z,95007.77
2019-03-08T16:42:17.780Z,95020.30
2019-03-08T16:44:57.515Z,95020.43
2019-03-08T16:47:58.047Z,95013.70
2019-03-08T16:50:56.242Z,95025.88
2019-03-08T16:53:45.499Z,95028.87
2019-03-08T16:56:39.855Z,95029.06
2019-03-08T16:59:21.687Z,95026.10
2019-03-08T17:02:15.225Z,95036.86
2019-03-08T17:05:09.401Z,95039.45
2019-03-08T17:07:56.667Z,95045.63
2019-03-08T17:10:57.529Z,95044.94
2019-03-08T17:13:43.609Z,95046.37
2019-03-08T17:16:32.287Z,95053.22
2019-03-08T17:19:15.780Z,95051.31
2019-03-08T17:22:07.609Z,95057.42
2019-03-08T17:24:54.895Z,95066.11
2019-03-08T17:27:40.012Z,95077.47
2019-03-08T17:30:31.529Z,95076.80
2019-03-08T17:33:24.665Z,95081.77
2019-03-08T17:36:16.492Z,95077.27
2019-03-08T17:39:01.035Z,95074.79
2019-03-08T17:41:52.348Z,95075.42
2019-03-08T17:44:37.771Z,95073.44
2019-03-08T17:47:23.836Z,95076.03
2019-03-08T17:50:16.052Z,95078.81
2019-03-08T17:53:03.127Z,95077.17
2019-03-08T17:56:00.887Z,95078.15
2019-03-08T17:58:41.535Z,95081.97
2019-03-08T18:01:28.830Z,95076.55
2019-03-08T18:04:17.304Z,95082.27
2019-03-08T18:07:03.606Z,95081.41
2019-03-08T18:09:45.615Z,95085.57
2019-03-08T18:12:37.090Z,95090.45
2019-03-08T18:15:28.875Z,95105.59
2019-03-08T18:18:20.185Z,95100.66
2019-03-08T18:21:07.351Z,95104.17
2019-03-08T18:23:54.421Z,95113.02
2019-03-08T18:26:51.863Z,95121.69
2019-03-08T18:29:39.336Z,95117.88
2019-03-08T18:32:26.659Z,95124.73
2019-03-08T18:35:06.674Z,95125.66
2019-03-08T18:37:49.635Z,95125.17
2019-03-08T18:40:36.686Z,95131.34
2019-03-08T18:43:27.910Z,95132.02
2019-03-08T18:46:19.094Z,95132.44
2019-03-08T18:48:59.143Z,95136.88
2019-03-08T18:51:44.861Z,95130.34
2019-03-08T18:54:42.248Z,95134.31
2019-03-08T18:57:32.220Z,95136.05
2019-03-08T19:00:29.932Z,95140.36
2019-03-08T19:03:21.608Z,95146.13
2019-03-08T19:06:10.029Z,95159.41
2019-03-08T19:08:46.118Z,95156.91
2019-03-08T19:11:25.187Z,95156.69
2019-03-08T19:14:26.146Z,95157.57
2019-03-08T19:17:08.688Z,95163.67
2019-03-08T19:20:00.360Z,95165.55
2019-03-08T19:22:38.659Z,95168.48
2019-03-08T19:25:32.082Z,95166.31
2019-03-08T19:28:26.646Z,95164.70
2019-03-08T19:31:05.732Z,95169.99
2019-03-08T19:33:54.006Z,95170.14
2019-03-08T19:36:38.357Z,95171.80
2019-03-08T19:39:33.471Z,95181.49
2019-03-08T19:42:16.447Z,95185.34
2019-03-08T19:44:55.387Z,95181.42
2019-03-08T19:47:43.852Z,95189.61
2019-03-08T19:50:38.382Z,95184.41
2019-03-08T19:53:35.824Z,95194.09
2019-03-08T19:56:27.440Z,95186.55
2019-03-08T19:59:03.168Z,95196.09
2019-03-08T20:01:51.618Z,95188.98
2019-03-08T20:04:39.102Z,95194.50
2019-03-08T20:07:16.621Z,95197.82
2019-03-08T20:09:57.122Z,95198.25
2019-03-08T20:12:41.722Z,95194.80
2019-03-08T20:15:23.175Z,95200.53
2019-03-08T20:18:07.325Z,95203.01
2019-03-08T20:21:02.199Z,95206.86
2019-03-08T20:23:56.265Z,95207.02
2019-03-08T20:26:44.724Z,95208.24
2019-03-08T20:29:45.424Z,95210.03
2019-03-08T20:32:24.428Z,95214.89
2019-03-08T20:35:09.005Z,95226.16
2019-03-08T20:37:46.155Z,95228.94
2019-03-08T20:40:24.406Z,95224.38
2019-03-08T20:43:01.741Z,95224.96
2019-03-08T20:45:39.529Z,95218.92
2019-03-08T20:48:09.018Z,95223.94
2019-03-08T20:50:38.510Z,95221.98
2019-03-08T20:53:08.020Z,95220.94
2019-03-08T20:55:37.655Z,95214.48
2019-03-08T20:58:07.163Z,95212.66
2019-03-08T21:00:36.799Z,95221.14
2019-03-08T21:03:06.304Z,95219.78
2019-03-08T21:05:35.810Z,95220.91
2019-03-08T21:08:05.330Z,95218.14
2019-03-08T21:10:34.846Z,95218.91
2019-03-08T21:13:04.323Z,95215.09
2019-03-08T21:15:33.925Z,95215.30
2019-03-08T21:18:03.455Z,95218.25
2019-03-08T21:20:32.987Z,95222.66
2019-03-08T21:23:02.701Z,95216.81
2019-03-08T21:25:32.178Z,95215.50
2019-03-08T21:28:01.683Z,95218.83
2019-03-08T21:30:31.204Z,95212.75
2019-03-08T21:33:00.708Z,95206.20
2019-03-08T21:35:30.365Z,95219.16
2019-03-08T21:37:59.852Z,95214.53
2019-03-08T21:40:29.321Z,95216.72
2019-03-08T21:42:58.801Z,95218.47
2019-03-08T21:45:28.354Z,95210.89
2019-03-08T21:47:58.155Z,95232.78
2019-03-08T21:50:27.697Z,95229.02
2019-03-08T21:52:57.270Z,95229.81
2019-03-08T21:55:26.845Z,95223.55
2019-03-08T21:57:56.365Z,95221.72
2019-03-08T22:00:26.112Z,95223.44
2019-03-08T22:02:55.609Z,95228.90
2019-03-08T22:05:28.198Z,95239.73
2019-03-08T22:07:57.733Z,95239.84
2019-03-08T22:10:52.344Z,95234.89
2019-03-08T22:13:21.921Z,95235.70
2019-03-08T22:15:51.402Z,95231.66
2019-03-08T22:18:20.889Z,95235.30
2019-03-08T22:20:50.807Z,95242.07
2019-03-08T22:23:20.306Z,95240.25
2019-03-08T22:25:49.823Z,95249.34
2019-03-08T22:28:19.328Z,95241.45
2019-03-08T22:30:48.807Z,95240.45
2019-03-08T22:33:18.324Z,95238.84
2019-03-08T22:35:47.796Z,95247.75
2019-03-08T22:38:17.279Z,95241.07
2019-03-08T22:40:46.814Z,95241.97
2019-03-08T22:43:16.285Z,95250.05
2019-03-08T22:45:45.766Z,95254.61
2019-03-08T22:48:15.273Z,95260.84
2019-03-08T22:50:44.738Z,95260.96
2019-03-08T22:53:14.247Z,95267.92
2019-03-08T22:55:43.757Z,95269.47
2019-03-08T22:58:13.238Z,95273.30
2019-03-08T23:01:01.259Z,95271.78
2019-03-08T23:03:31.207Z,95278.75
2019-03-08T23:06:00.758Z,95280.88
2019-03-08T23:08:30.520Z,95284.74
2019-03-08T23:11:00.052Z,95278.13
2019-03-08T23:13:29.530Z,95282.38
2019-03-08T23:15:59.050Z,95278.62
2019-03-08T23:18:28.490Z,95287.94
2019-03-08T23:20:58.235Z,95279.19
2019-03-08T23:23:27.733Z,95277.88
2019-03-08T23:25:57.211Z,95286.38
2019-03-08T23:28:32.035Z,95290.40
2019-03-08T23:31:05.952Z,95285.62
2019-03-08T23:33:35.397Z,95290.09
2019-03-08T23:36:04.872Z,95290.16
2019-03-08T23:38:34.387Z,95286.41
2019-03-08T23:41:03.871Z,95289.57
2019-03-08T23:43:33.430Z,95293.70
2019-03-08T23:46:02.919Z,95302.15
2019-03-08T23:48:32.418Z,95293.55
2019-03-08T23:51:01.894Z,95301.52
2019-03-08T23:53:31.351Z,95297.49
2019-03-08T23:56:00.847Z,95298.62
2019-03-08T23:58:30.362Z,95302.62
